Time,TemperatureF,DewpointF,PressureIn,WindDirection,WindDirectionDegrees,WindSpeedMPH,WindSpeedGustMPH,Humidity,HourlyPrecipIn,Conditions,Clouds,dailyrainin,SoftwareType,DateUTC
2013-08-16 00:12:00,60.0,-99.9,-100.00,NE,50,2.0,2.0,-999,0.00,,,0.00,,2013-08-16 05:12:00,
2013-08-16 00:22:00,60.0,-99.9,-100.00,NE,50,2.0,2.0,-999,0.00,,,0.00,,2013-08-16 05:22:00,
2013-08-16 00:40:00,56.0,-99.9,-100.00,ENE,62,2.0,3.0,-999,0.00,,,0.00,,2013-08-16 05:40:00,
2013-08-16 00:46:00,56.0,-99.9,-100.00,NE,52,2.0,3.0,-999,0.00,,,0.00,,2013-08-16 05:46:00,
2013-08-16 02:00:00,57.0,-99.9,-100.00,ENE,62,0.0,0.0,-999,0.00,,,0.00,,2013-08-16 07:00:00,
2013-08-16 02:11:00,57.0,-99.9,-100.00,ENE,68,1.0,2.0,-999,0.00,,,0.00,,2013-08-16 07:11:00,
2013-08-16 02:22:00,57.0,-99.9,-100.00,ENE,68,1.0,2.0,-999,0.00,,,0.00,,2013-08-16 07:22:00,
2013-08-16 02:31:00,57.0,-99.9,-100.00,ENE,68,1.0,2.0,-999,0.00,,,0.00,,2013-08-16 07:31:00,
2013-08-16 02:52:00,55.0,-99.9,-100.00,ENE,65,2.0,2.0,-999,0.00,,,0.00,,2013-08-16 07:52:00,
2013-08-16 03:11:00,54.0,-99.9,-100.00,NE,55,2.0,2.0,-999,0.00,,,0.00,,2013-08-16 08:11:00,
2013-08-16 03:22:00,54.0,-99.9,-100.00,NE,55,2.0,2.0,-999,0.00,,,0.00,,2013-08-16 08:22:00,
2013-08-16 03:42:00,55.0,-99.9,-100.00,ENE,62,0.0,0.0,-999,0.00,,,0.00,,2013-08-16 08:42:00,
2013-08-16 03:52:00,55.0,-99.9,-100.00,ENE,62,0.0,0.0,-999,0.00,,,0.00,,2013-08-16 08:52:00,
2013-08-16 04:11:00,55.0,-99.9,-100.00,ENE,66,1.0,2.0,-999,0.00,,,0.00,,2013-08-16 09:11:00,
2013-08-16 04:22:00,55.0,-99.9,-100.00,ENE,66,1.0,2.0,-999,0.00,,,0.00,,2013-08-16 09:22:00,
2013-08-16 04:42:00,55.0,-99.9,-100.00,ENE,71,2.0,2.0,-999,0.00,,,0.00,,2013-08-16 09:42:00,
2013-08-16 04:53:00,55.0,-99.9,-100.00,ENE,71,2.0,2.0,-999,0.00,,,0.00,,2013-08-16 09:53:00,
2013-08-16 05:13:00,53.0,-99.9,-100.00,NE,37,2.0,3.0,-999,0.00,,,-99.99,,2013-08-16 10:13:00,
2013-08-16 05:23:00,53.0,-99.9,-100.00,NE,37,2.0,3.0,-999,0.00,,,-99.99,,2013-08-16 10:23:00,
2013-08-16 05:42:00,53.0,-99.9,-100.00,ENE,59,2.0,2.0,-999,0.00,,,-99.99,,2013-08-16 10:42:00,
2013-08-16 05:53:00,53.0,-99.9,-100.00,ENE,59,2.0,2.0,-999,0.00,,,-99.99,,2013-08-16 10:53:00,
2013-08-16 06:12:00,52.0,-99.9,-100.00,ENE,69,2.0,3.0,-999,0.00,,,-99.99,,2013-08-16 11:12:00,
2013-08-16 06:22:00,52.0,-99.9,-100.00,ENE,69,2.0,3.0,-999,0.00,,,-99.99,,2013-08-16 11:22:00,
2013-08-16 06:42:00,53.0,-99.9,-100.00,ENE,69,2.0,3.0,-999,0.00,,,-99.99,,2013-08-16 11:42:00,
2013-08-16 06:52:00,53.0,-99.9,-100.00,ENE,69,2.0,3.0,-999,0.00,,,-99.99,,2013-08-16 11:52:00,
2013-08-16 07:02:00,53.0,-99.9,-100.00,ENE,69,2.0,3.0,-999,0.00,,,-99.99,,2013-08-16 12:02:00,
2013-08-16 07:22:00,54.0,-99.9,-100.00,ENE,74,1.0,1.0,-999,0.00,,,0.00,,2013-08-16 12:22:00,
2013-08-16 07:42:00,54.0,-99.9,-100.00,NE,50,1.0,2.0,-999,0.00,,,0.00,,2013-08-16 12:42:00,
2013-08-16 07:52:00,54.0,-99.9,-100.00,NE,50,1.0,2.0,-999,0.00,,,0.00,,2013-08-16 12:52:00,
2013-08-16 08:12:00,58.0,-99.9,-100.00,ENE,60,1.0,2.0,-999,0.00,,,0.00,,2013-08-16 13:12:00,
2013-08-16 08:22:00,58.0,-99.9,-100.00,ENE,60,1.0,2.0,-999,0.00,,,0.00,,2013-08-16 13:22:00,
2013-08-16 08:53:00,65.0,-99.9,-100.00,ENE,78,1.0,1.0,-999,0.00,,,0.00,,2013-08-16 13:53:00,
2013-08-16 09:11:00,64.0,-99.9,-100.00,East,93,1.0,2.0,-999,0.00,,,0.00,,2013-08-16 14:11:00,
2013-08-16 09:22:00,64.0,-99.9,-100.00,East,93,1.0,2.0,-999,0.00,,,0.00,,2013-08-16 14:22:00,
2013-08-16 09:42:00,67.0,-99.9,-100.00,North,356,2.0,4.0,-999,0.00,,,0.00,,2013-08-16 14:42:00,
2013-08-16 09:52:00,67.0,-99.9,-100.00,North,356,2.0,4.0,-999,0.00,,,0.00,,2013-08-16 14:52:00,
2013-08-16 10:01:00,67.0,-99.9,-100.00,North,356,2.0,4.0,-999,0.00,,,0.00,,2013-08-16 15:01:00,
2013-08-16 10:22:00,69.0,-99.9,-100.00,NNW,344,3.0,6.0,-999,0.00,,,0.00,,2013-08-16 15:22:00,
2013-08-16 10:43:00,71.0,-99.9,-100.00,NNW,344,4.0,8.0,-999,0.00,,,0.00,,2013-08-16 15:43:00,
2013-08-16 10:56:00,71.0,-99.9,-100.00,NNW,344,4.0,8.0,-999,0.00,,,0.00,,2013-08-16 15:56:00,
2013-08-16 11:05:00,71.0,-99.9,-100.00,NNW,344,4.0,8.0,-999,0.00,,,0.00,,2013-08-16 16:05:00,
2013-08-16 11:23:00,73.0,-99.9,-100.00,North,6,3.0,7.0,-999,0.00,,,-99.99,,2013-08-16 16:23:00,
2013-08-16 11:44:00,75.0,-99.9,-100.00,NNW,341,3.0,6.0,-999,0.00,,,0.00,,2013-08-16 16:44:00,
2013-08-16 11:57:00,75.0,-99.9,-100.00,NNW,341,3.0,6.0,-999,0.00,,,0.00,,2013-08-16 16:57:00,
2013-08-16 12:03:00,75.0,-99.9,-100.00,NNW,341,3.0,6.0,-999,0.00,,,0.00,,2013-08-16 17:03:00,
2013-08-16 12:28:00,77.0,-99.9,-100.00,NE,40,1.0,8.0,-999,0.00,,,0.00,,2013-08-16 17:28:00,
2013-08-16 12:47:00,75.0,-99.9,-100.00,ESE,119,3.0,5.0,-999,0.00,,,0.00,,2013-08-16 17:47:00,
2013-08-16 13:00:00,75.0,-99.9,-100.00,ESE,119,3.0,5.0,-999,0.00,,,0.00,,2013-08-16 18:00:00,
2013-08-16 13:06:00,75.0,-99.9,-100.00,ESE,119,3.0,5.0,-999,0.00,,,0.00,,2013-08-16 18:06:00,
2013-08-16 13:28:00,79.0,-99.9,-100.00,North,6,0.0,2.0,-999,0.00,,,0.00,,2013-08-16 18:28:00,
2013-08-16 13:50:00,-999.0,-99.9,-100.00,East,89,1.0,3.0,-999,0.00,,,0.00,,2013-08-16 18:50:00,
2013-08-16 14:03:00,79.0,-99.9,-100.00,East,89,1.0,3.0,-999,0.00,,,0.00,,2013-08-16 19:03:00,
2013-08-16 14:25:00,77.0,-99.9,-100.00,ESE,106,1.0,3.0,-999,0.00,,,0.00,,2013-08-16 19:25:00,
2013-08-16 14:47:00,78.0,-99.9,-100.00,NE,37,1.0,4.0,-999,0.00,,,0.00,,2013-08-16 19:47:00,
2013-08-16 14:55:00,78.0,-99.9,-100.00,NE,37,1.0,4.0,-999,0.00,,,0.00,,2013-08-16 19:55:00,
2013-08-16 15:02:00,78.0,-99.9,-100.00,NE,37,1.0,4.0,-999,0.00,,,0.00,,2013-08-16 20:02:00,
2013-08-16 15:23:00,79.0,-99.9,-100.00,SE,125,1.0,3.0,-999,0.00,,,0.00,,2013-08-16 20:23:00,
2013-08-16 15:44:00,77.0,-99.9,-100.00,South,169,4.0,6.0,-999,0.00,,,0.00,,2013-08-16 20:44:00,
2013-08-16 15:52:00,77.0,-99.9,-100.00,South,169,4.0,6.0,-999,0.00,,,0.00,,2013-08-16 20:52:00,
2013-08-16 16:01:00,77.0,-99.9,-100.00,South,169,4.0,6.0,-999,0.00,,,0.00,,2013-08-16 21:01:00,
2013-08-16 16:25:00,80.0,-99.9,-100.00,WSW,241,1.0,3.0,-999,0.00,,,0.00,,2013-08-16 21:25:00,
2013-08-16 16:40:00,-999.0,-99.9,-100.00,SSE,147,1.0,2.0,-999,0.00,,,0.00,,2013-08-16 21:40:00,
2013-08-16 16:54:00,80.0,-99.9,-100.00,SSE,147,1.0,2.0,-999,0.00,,,0.00,,2013-08-16 21:54:00,
2013-08-16 17:13:00,81.0,-99.9,-100.00,WSW,255,1.0,3.0,-999,0.00,,,0.00,,2013-08-16 22:13:00,
2013-08-16 17:24:00,81.0,-99.9,-100.00,WSW,255,1.0,3.0,-999,0.00,,,0.00,,2013-08-16 22:24:00,
2013-08-16 17:44:00,79.0,-99.9,-100.00,North,5,2.0,3.0,-999,0.00,,,0.00,,2013-08-16 22:44:00,
2013-08-16 17:53:00,79.0,-99.9,-100.00,North,5,2.0,3.0,-999,0.00,,,0.00,,2013-08-16 22:53:00,
2013-08-16 18:09:00,79.0,-99.9,-100.00,North,5,2.0,3.0,-999,0.00,,,0.00,,2013-08-16 23:09:00,
2013-08-16 18:23:00,81.0,-99.9,-100.00,East,88,1.0,3.0,-999,0.00,,,0.00,,2013-08-16 23:23:00,
2013-08-16 18:42:00,79.0,-99.9,-100.00,ENE,76,0.0,1.0,-999,0.00,,,0.00,,2013-08-16 23:42:00,
2013-08-16 18:52:00,79.0,-99.9,-100.00,ENE,76,0.0,1.0,-999,0.00,,,0.00,,2013-08-16 23:52:00,
2013-08-16 19:12:00,77.0,-99.9,-100.00,ENE,77,0.0,1.0,-999,0.00,,,0.00,,2013-08-17 00:12:00,
2013-08-16 19:22:00,77.0,-99.9,-100.00,ENE,77,0.0,1.0,-999,0.00,,,0.00,,2013-08-17 00:22:00,
2013-08-16 19:42:00,75.0,-99.9,-100.00,NNE,32,0.0,0.0,-999,0.00,,,0.00,,2013-08-17 00:42:00,
2013-08-16 19:52:00,75.0,-99.9,-100.00,NNE,32,0.0,0.0,-999,0.00,,,0.00,,2013-08-17 00:52:00,
2013-08-16 20:01:00,75.0,-99.9,-100.00,NNE,32,0.0,0.0,-999,0.00,,,0.00,,2013-08-17 01:01:00,
2013-08-16 20:21:00,72.0,-99.9,-100.00,NNE,26,0.0,0.0,-999,0.00,,,0.00,,2013-08-17 01:21:00,
2013-08-16 20:42:00,69.0,-99.9,-100.00,NE,50,0.0,1.0,-999,0.00,,,0.00,,2013-08-17 01:42:00,
2013-08-16 20:52:00,69.0,-99.9,-100.00,NE,50,0.0,1.0,-999,0.00,,,0.00,,2013-08-17 01:52:00,
2013-08-16 21:11:00,68.0,-99.9,-100.00,NE,50,0.0,1.0,-999,0.00,,,0.00,,2013-08-17 02:11:00,
2013-08-16 21:21:00,68.0,-99.9,-100.00,NE,50,0.0,1.0,-999,0.00,,,0.00,,2013-08-17 02:21:00,
2013-08-16 21:42:00,68.0,-99.9,-100.00,ENE,75,0.0,1.0,-999,0.00,,,0.00,,2013-08-17 02:42:00,
2013-08-16 21:52:00,68.0,-99.9,-100.00,ENE,75,0.0,1.0,-999,0.00,,,0.00,,2013-08-17 02:52:00,
2013-08-16 22:11:00,67.0,-99.9,-100.00,ENE,62,1.0,1.0,-999,0.00,,,0.00,,2013-08-17 03:11:00,
2013-08-16 22:22:00,67.0,-99.9,-100.00,ENE,62,1.0,1.0,-999,0.00,,,0.00,,2013-08-17 03:22:00,
2013-08-16 22:43:00,64.0,-99.9,-100.00,NE,52,1.0,1.0,-999,0.00,,,0.00,,2013-08-17 03:43:00,
2013-08-16 22:53:00,64.0,-99.9,-100.00,NE,52,1.0,1.0,-999,0.00,,,0.00,,2013-08-17 03:53:00,
2013-08-16 23:13:00,63.0,-99.9,-100.00,NNE,17,0.0,1.0,-999,0.00,,,0.00,,2013-08-17 04:13:00,
2013-08-16 23:23:00,63.0,-99.9,-100.00,NNE,17,0.0,1.0,-999,0.00,,,0.00,,2013-08-17 04:23:00,
2013-08-16 23:44:00,62.0,-99.9,-100.00,NE,37,2.0,3.0,-999,0.00,,,0.00,,2013-08-17 04:44:00,
2013-08-16 23:53:00,62.0,-99.9,-100.00,NE,37,2.0,3.0,-999,0.00,,,0.00,,2013-08-17 04:53:00,